Time;durP1;ratioP1;P1;durP2;ratioP2;P2;SDS_P1;SDS_P2;PMS_P1;PMS_P2;Temp;Humidity;BMP_temperature;BMP_pressure;BME280_temperature;BME280_humidity;BME280_pressure;Samples;Min_cycle;Max_cycle;Signal;HPM_P1;HPM_P2
2022/05/13 00:00:44;;;;;;;10.40;1.50;;;11.10;99.90;;;10.00;82.21;101180.53;4967930;28;20039;-81
2022/05/13 00:03:10;;;;;;;8.50;1.83;;;11.10;99.90;;;10.02;81.89;101175.22;4945769;28;20324;-80
2022/05/13 00:05:36;;;;;;;10.15;1.55;;;11.20;99.90;;;10.03;82.28;101167.25;4946022;28;20085;-82
2022/05/13 00:08:02;;;;;;;7.28;1.27;;;11.20;99.90;;;10.07;82.25;101163.59;4967289;28;20046;-80
2022/05/13 00:10:30;;;;;;;12.45;2.00;;;11.20;99.90;;;10.10;81.82;101161.78;4945063;28;20415;-81
2022/05/13 00:12:56;;;;;;;8.70;1.08;;;11.30;99.90;;;10.07;82.00;101153.09;4941437;28;20108;-81
2022/05/13 00:15:25;;;;;;;9.70;1.55;;;11.30;99.90;;;10.07;82.04;101166.25;4945671;28;20311;-80
2022/05/13 00:17:56;;;;;;;9.82;1.25;;;11.20;99.90;;;10.05;82.20;101161.97;4964577;28;20038;-80
2022/05/13 00:20:25;;;;;;;8.73;1.30;;;11.20;99.90;;;9.98;81.91;101166.59;4945491;28;20054;-81
2022/05/13 00:22:54;;;;;;;6.78;1.20;;;11.10;99.90;;;9.96;81.95;101160.53;4949136;28;20115;-80
2022/05/13 00:25:24;;;;;;;11.73;1.40;;;11.10;99.90;;;9.89;81.72;101161.66;4943823;28;20476;-80
2022/05/13 00:27:53;;;;;;;10.80;1.40;;;11.00;99.90;;;9.80;81.24;101151.47;4971701;28;20559;-80
2022/05/13 00:30:19;;;;;;;10.82;1.65;;;10.90;99.90;;;9.72;80.76;101156.16;4920652;28;20094;-81
2022/05/13 00:32:45;;;;;;;13.48;1.45;;;10.80;99.90;;;9.53;81.44;101146.31;4937913;28;20031;-80
2022/05/13 00:35:11;;;;;;;9.13;1.42;;;10.70;99.90;;;9.38;81.32;101149.47;4929982;28;20054;-79
2022/05/13 00:37:37;;;;;;;11.73;1.35;;;10.50;99.90;;;9.24;81.97;101147.31;4928523;28;20107;-80
2022/05/13 00:40:04;;;;;;;11.40;1.77;;;10.40;99.90;;;9.17;82.38;101146.66;4954057;28;20098;-80
2022/05/13 00:42:30;;;;;;;8.77;1.77;;;10.40;99.90;;;9.16;83.36;101144.09;4962671;28;20503;-80
2022/05/13 00:44:59;;;;;;;3.90;1.20;;;10.40;99.90;;;9.19;83.88;101146.63;4943673;28;20074;-80
2022/05/13 00:47:25;;;;;;;7.40;1.90;;;10.40;99.90;;;9.19;84.06;101144.84;4954337;28;20038;-80
2022/05/13 00:49:55;;;;;;;5.15;1.33;;;10.30;99.90;;;9.15;83.93;101145.84;4959731;28;20475;-80
2022/05/13 00:52:21;;;;;;;8.98;1.35;;;10.30;99.90;;;9.12;83.98;101140.72;4960196;28;20046;-80
2022/05/13 00:54:47;;;;;;;13.73;1.80;;;10.30;99.90;;;9.12;84.87;101138.09;4932363;28;20462;-80
2022/05/13 00:57:13;;;;;;;9.02;1.67;;;10.40;99.90;;;9.19;86.10;101136.97;4930898;28;20058;-81
2022/05/13 00:59:45;;;;;;;13.75;1.70;;;10.40;99.90;;;9.33;86.31;101133.00;4924615;28;20415;-80
2022/05/13 01:02:11;;;;;;;7.25;1.33;;;10.50;99.90;;;9.44;85.79;101130.88;4935081;28;22210;-81
2022/05/13 01:04:38;;;;;;;11.68;1.88;;;10.60;99.90;;;9.52;84.98;101134.06;4989826;28;20093;-81
2022/05/13 01:07:16;;;;;;;7.82;1.23;;;10.70;99.90;;;9.57;84.74;101132.13;4968972;28;20131;-81
2022/05/13 01:09:49;;;;;;;9.68;1.67;;;10.70;99.90;;;9.58;84.44;101128.59;4952431;28;20031;-81
2022/05/13 01:12:22;;;;;;;6.72;1.85;;;10.70;99.90;;;9.61;84.38;101122.34;4941268;28;20393;-80
2022/05/13 01:15:01;;;;;;;7.35;1.42;;;10.70;99.90;;;9.59;84.60;101124.19;4921633;28;20055;-80
2022/05/13 01:20:25;;;;;;;10.10;1.67;;;10.70;99.90;;;9.55;85.07;101131.34;4939258;28;20406;-81
2022/05/13 01:22:55;;;;;;;8.57;1.75;;;10.70;99.90;;;9.59;84.77;101130.31;4960614;28;20082;-81
2022/05/13 01:25:25;;;;;;;10.13;1.77;;;10.80;99.90;;;9.64;85.15;101128.38;4982623;28;20042;-81
2022/05/13 01:27:53;;;;;;;11.27;1.65;;;10.80;99.90;;;9.70;84.82;101134.31;4945680;28;20042;-81
2022/05/13 01:30:27;;;;;;;9.15;1.23;;;10.90;99.90;;;9.75;84.44;101127.13;4980473;28;20031;-82
2022/05/13 01:32:56;;;;;;;8.77;1.65;;;10.90;99.90;;;9.76;84.22;101127.06;4974810;28;20107;-81
2022/05/13 01:35:23;;;;;;;6.28;1.60;;;10.90;99.90;;;9.75;83.65;101120.09;4928790;28;20067;-81
2022/05/13 01:37:50;;;;;;;7.38;1.90;;;10.90;99.90;;;9.70;83.52;101123.78;4959579;28;20035;-81
2022/05/13 01:40:16;;;;;;;13.25;2.13;;;10.80;99.90;;;9.58;83.51;101125.09;4958607;28;20114;-81
2022/05/13 01:42:45;;;;;;;18.65;2.10;;;10.70;99.90;;;9.49;84.10;101120.19;4936978;28;20027;-81
2022/05/13 01:45:11;;;;;;;20.13;2.25;;;10.60;99.90;;;9.42;84.53;101116.91;4944552;28;20050;-80
2022/05/13 01:47:38;;;;;;;15.55;1.92;;;10.60;99.90;;;9.33;85.18;101122.47;4953870;28;20030;-81
2022/05/13 01:50:06;;;;;;;11.02;2.10;;;10.50;99.90;;;9.26;85.68;101126.25;4923154;28;20051;-80
2022/05/13 01:52:32;;;;;;;3.97;1.50;;;10.50;99.90;;;9.20;86.10;101122.94;4950615;28;20380;-80
2022/05/13 01:54:58;;;;;;;12.07;2.08;;;10.40;99.90;;;9.18;86.04;101124.75;4973215;28;20093;-81
2022/05/13 01:57:24;;;;;;;6.50;1.58;;;10.40;99.90;;;9.12;85.85;101114.44;4951942;28;20634;-81
2022/05/13 01:59:50;;;;;;;6.90;1.80;;;10.30;99.90;;;9.07;85.97;101121.63;4947945;28;20086;-80
2022/05/13 02:02:16;;;;;;;13.50;2.05;;;10.30;99.90;;;9.07;86.77;101121.63;4935848;28;20035;-81
2022/05/13 02:04:41;;;;;;;4.10;1.55;;;10.20;99.90;;;9.07;86.35;101121.63;4943413;28;20024;-80
2022/05/13 02:07:07;;;;;;;8.02;1.80;;;10.30;99.90;;;9.06;87.08;101114.66;4932981;28;20030;-80
2022/05/13 02:09:33;;;;;;;7.90;1.88;;;10.30;99.90;;;9.09;87.35;101117.16;4937385;28;20088;-80
2022/05/13 02:11:58;;;;;;;9.80;2.08;;;10.30;99.90;;;9.13;86.35;101116.16;4934133;28;20053;-80
2022/05/13 02:14:24;;;;;;;11.27;1.80;;;10.30;99.90;;;9.12;85.76;101114.44;4921710;28;20090;-81
2022/05/13 02:16:50;;;;;;;7.25;1.45;;;10.30;99.90;;;9.11;85.84;101106.59;4949770;28;20518;-80
2022/05/13 02:19:17;;;;;;;9.82;1.73;;;10.30;99.90;;;9.10;85.89;101105.75;4925902;28;20065;-81
2022/05/13 02:21:45;;;;;;;6.50;1.88;;;10.20;99.90;;;9.07;85.08;101100.63;4927568;28;20411;-80
2022/05/13 02:24:11;;;;;;;6.32;1.80;;;10.20;99.90;;;9.07;85.98;101099.75;4941527;28;20392;-81
2022/05/13 02:26:36;;;;;;;8.50;2.00;;;10.20;99.90;;;9.04;86.42;101106.81;4936641;28;20039;-80
2022/05/13 02:29:03;;;;;;;7.75;1.75;;;10.20;99.90;;;9.10;87.17;101104.91;4934342;28;20037;-80
2022/05/13 02:31:30;;;;;;;11.35;2.00;;;10.30;99.90;;;9.12;87.44;101103.94;4934963;28;20499;-81
2022/05/13 02:33:57;;;;;;;12.50;2.40;;;10.30;99.90;;;9.19;88.09;101097.53;4964445;28;20046;-81
2022/05/13 02:36:26;;;;;;;9.40;1.85;;;10.40;99.90;;;9.23;88.07;101099.16;4956339;28;20023;-81
2022/05/13 02:38:52;;;;;;;6.63;1.70;;;10.40;99.90;;;9.29;87.07;101094.59;4953396;28;20216;-81
2022/05/13 02:41:20;;;;;;;9.88;2.22;;;10.40;99.90;;;9.35;87.01;101097.88;4936004;28;20084;-81
2022/05/13 02:43:55;;;;;;;6.10;1.73;;;10.50;99.90;;;9.41;86.31;101099.41;4930354;28;20030;-80
2022/05/13 02:46:27;;;;;;;8.95;1.92;;;10.50;99.90;;;9.41;86.08;101091.53;4952729;28;20031;-80
2022/05/13 02:48:53;;;;;;;7.47;1.83;;;10.50;99.90;;;9.41;86.14;101104.66;4954918;28;20031;-80
2022/05/13 02:51:20;;;;;;;7.93;1.70;;;10.50;99.90;;;9.34;85.98;101103.19;4948890;28;20106;-80
2022/05/13 02:53:46;;;;;;;8.60;1.88;;;10.50;99.90;;;9.24;86.33;101100.00;4942922;28;20040;-80
2022/05/13 02:56:12;;;;;;;6.63;1.60;;;10.40;99.90;;;9.19;85.85;101105.44;4951353;28;20022;-80
2022/05/13 02:58:39;;;;;;;4.35;1.90;;;10.40;99.90;;;9.16;86.24;101115.22;4922864;28;20151;-80
2022/05/13 03:01:08;;;;;;;6.65;1.92;;;10.30;99.90;;;9.13;86.28;101124.03;4958103;28;20027;-80
2022/05/13 03:03:37;;;;;;;5.38;1.77;;;10.30;99.90;;;9.12;86.18;101113.59;4952923;28;20023;-80
2022/05/13 03:06:03;;;;;;;7.82;2.10;;;10.30;99.90;;;9.11;86.82;101117.97;4962522;28;20040;-80
2022/05/13 03:08:28;;;;;;;10.45;1.90;;;10.30;99.90;;;9.13;87.10;101126.66;4926064;28;20050;-79
2022/05/13 03:10:54;;;;;;;8.75;2.00;;;10.30;99.90;;;9.16;87.39;101126.56;4943624;28;20058;-80
2022/05/13 03:13:20;;;;;;;6.10;1.63;;;10.30;99.90;;;9.16;87.19;101126.56;4935498;28;20045;-79
2022/05/13 03:15:47;;;;;;;4.28;1.88;;;10.30;99.90;;;9.20;87.82;101119.41;4965513;28;20147;-80
2022/05/13 03:18:13;;;;;;;5.45;1.90;;;10.30;99.90;;;9.23;87.91;101128.06;4968289;28;20095;-80
2022/05/13 03:20:39;;;;;;;6.25;1.63;;;10.40;99.90;;;9.28;88.36;101120.00;4912733;28;21464;-80
2022/05/13 03:23:05;;;;;;;7.57;1.80;;;10.40;99.90;;;9.33;87.93;101106.72;4905940;28;20077;-80
2022/05/13 03:25:31;;;;;;;7.82;1.83;;;10.50;99.90;;;9.36;88.73;101111.88;4955895;28;20487;-80
2022/05/13 03:27:57;;;;;;;14.73;2.25;;;10.50;99.90;;;9.41;88.56;101115.19;4951824;28;20739;-80
2022/05/13 03:30:24;;;;;;;10.40;2.17;;;;;;;9.44;88.09;101109.84;4942053;28;20039;-80
2022/05/13 03:32:52;;;;;;;9.85;2.53;;;10.50;99.90;;;9.49;88.42;101107.91;4949651;28;20061;-80
2022/05/13 03:35:20;;;;;;;9.18;2.10;;;10.60;99.90;;;9.53;88.51;101106.88;4956898;28;20125;-80
2022/05/13 03:37:46;;;;;;;10.02;2.03;;;10.60;99.90;;;9.56;88.06;101106.75;4940501;28;20069;-80
2022/05/13 03:40:17;;;;;;;7.20;2.10;;;10.70;99.90;;;9.62;88.51;101096.00;4924083;28;20541;-79
2022/05/13 03:42:46;;;;;;;8.35;2.10;;;10.70;99.90;;;9.64;88.82;101103.84;4945686;28;20065;-79
2022/05/13 03:45:15;;;;;;;6.25;2.05;;;10.80;99.90;;;9.71;88.14;101107.13;4973562;28;20057;-81
2022/05/13 03:47:41;;;;;;;10.45;1.92;;;10.80;99.90;;;9.72;87.97;101112.31;4931282;28;20106;-79
2022/05/13 03:50:08;;;;;;;7.55;2.17;;;10.80;99.90;;;9.76;88.22;101110.41;4916501;28;20168;-81
2022/05/13 03:52:35;;;;;;;8.55;2.05;;;10.90;99.90;;;9.80;87.69;101106.75;4927228;28;20034;-80
2022/05/13 03:55:00;;;;;;;9.00;2.00;;;10.90;99.90;;;9.84;87.75;101108.38;4917769;28;20511;-80
2022/05/13 03:57:26;;;;;;;6.95;2.20;;;10.90;99.90;;;9.87;87.71;101110.91;4968701;28;20035;-80
2022/05/13 03:59:52;;;;;;;7.97;2.00;;;11.00;99.90;;;9.88;87.71;101104.72;4929723;28;20132;-79
2022/05/13 04:02:18;;;;;;;8.20;1.80;;;11.00;99.90;;;9.93;87.55;101108.00;4933332;28;20039;-81
2022/05/13 04:10:19;;;;;;;7.25;2.00;;;11.10;99.90;;;10.20;86.62;101107.88;4962646;28;20033;-81
2022/05/13 04:18:13;;;;;;;10.55;2.25;;;11.60;99.90;;;10.80;84.70;101116.06;4964221;28;20094;-80
2022/05/13 04:20:39;;;;;;;12.93;2.60;;;11.80;99.90;;;11.03;83.06;101115.94;4931951;28;20027;-81
2022/05/13 04:23:05;;;;;;;6.97;2.03;;;11.80;99.90;;;11.17;82.15;101115.38;4913474;28;20045;-81
2022/05/13 04:25:32;;;;;;;7.15;1.90;;;12.00;99.90;;;11.26;81.35;101120.22;4934003;28;20030;-80
2022/05/13 04:27:58;;;;;;;18.35;3.00;;;12.00;99.90;;;11.33;81.12;101120.81;4934068;28;20041;-80
2022/05/13 04:30:24;;;;;;;8.63;2.25;;;12.30;99.90;;;11.73;80.14;101119.06;4954932;28;20055;-80
2022/05/13 04:32:50;;;;;;;10.57;2.65;;;12.40;99.90;;;11.80;79.30;101125.78;4951211;28;20038;-80
2022/05/13 04:35:16;;;;;;;9.70;2.50;;;12.60;99.90;;;12.00;78.25;101127.53;4970403;23;20022;-75
2022/05/13 04:37:42;;;;;;;12.40;2.55;;;12.90;99.90;;;12.57;76.46;101129.25;4980548;28;20491;-75
2022/05/13 04:40:11;;;;;;;7.70;2.40;;;13.20;99.90;;;12.84;74.68;101130.56;4970769;28;20328;-75
2022/05/13 04:42:51;;;;;;;7.65;2.00;;;13.60;99.90;;;13.58;72.28;101136.56;4982395;28;20046;-75
2022/05/13 04:45:28;;;;;;;9.35;1.80;;;14.20;99.90;;;14.38;69.34;101138.38;4966629;28;20032;-75
2022/05/13 04:48:16;;;;;;;6.63;1.52;;;14.70;99.90;;;14.75;67.73;101136.31;4971794;28;20026;-75
2022/05/13 04:50:58;;;;;;;9.05;2.15;;;15.10;99.90;;;15.49;66.28;101142.59;4996179;28;20038;-75
2022/05/13 04:53:33;;;;;;;11.18;1.88;;;15.60;99.90;;;15.58;65.54;101152.66;4983323;28;20126;-75
2022/05/13 04:56:01;;;;;;;13.63;2.15;;;16.00;99.90;;;15.94;64.98;101154.03;4997494;28;20035;-75
2022/05/13 04:58:27;;;;;;;15.77;2.60;;;16.20;99.90;;;15.84;65.83;101155.53;4963879;28;20038;-76
2022/05/13 05:00:56;;;;;;;8.82;2.22;;;16.50;99.90;;;16.52;65.25;101155.63;4967416;28;20114;-75
2022/05/13 05:03:24;;;;;;;7.45;1.80;;;16.80;99.90;;;16.85;63.23;101151.75;4965273;28;20482;-75
2022/05/13 05:05:50;;;;;;;5.60;2.33;;;17.50;99.90;;;18.67;59.55;101165.75;4980365;28;20070;-75
2022/05/13 05:08:16;;;;;;;9.05;1.80;;;18.00;99.90;;;18.08;58.53;101163.78;4999679;28;20045;-75
2022/05/13 05:10:45;;;;;;;9.52;2.10;;;18.00;99.90;;;17.38;59.20;101168.56;4932655;28;20054;-75
2022/05/13 05:13:24;;;;;;;8.65;1.70;;;17.80;99.90;;;16.89;61.23;101163.00;4951977;28;20034;-75
2022/05/13 05:15:54;;;;;;;8.30;1.73;;;17.60;99.90;;;16.79;62.15;101174.22;4974980;28;20085;-75
2022/05/13 05:18:20;;;;;;;11.85;1.63;;;17.80;99.90;;;18.78;58.54;101184.50;4971768;28;20120;-75
2022/05/13 05:20:47;;;;;;;9.43;1.85;;;18.30;99.90;;;18.65;56.43;101180.03;4965815;28;20030;-75
2022/05/13 05:23:17;;;;;;;10.05;1.70;;;18.40;99.90;;;17.75;58.21;101178.47;4987823;28;20038;-75
2022/05/13 05:25:44;;;;;;;4.72;1.70;;;18.10;99.90;;;17.13;59.51;101177.38;4964321;28;20015;-75
2022/05/13 05:28:11;;;;;;;9.32;1.70;;;17.90;99.90;;;16.80;60.87;101183.09;4981719;28;20030;-75
2022/05/13 05:30:37;;;;;;;4.53;1.55;;;17.60;99.90;;;16.61;61.49;101170.97;4957024;28;20026;-75
2022/05/13 05:33:03;;;;;;;7.97;2.10;;;17.50;99.90;;;16.40;62.20;101178.53;4956573;28;20042;-74
2022/05/13 05:35:29;;;;;;;6.85;1.85;;;17.90;99.90;;;19.68;56.82;101182.16;4980280;28;20502;-74
2022/05/13 05:37:55;;;;;;;9.65;1.80;;;19.00;99.90;;;20.78;51.50;101185.03;4990082;28;20092;-75
2022/05/13 05:40:24;;;;;;;6.60;1.85;;;19.50;99.90;;;19.50;52.89;101179.06;4990801;28;20050;-75
2022/05/13 05:42:50;;;;;;;10.88;1.70;;;19.60;99.90;;;18.96;55.05;101179.63;4981115;28;20057;-75
2022/05/13 05:45:19;;;;;;;5.78;1.40;;;19.50;99.90;;;19.16;54.64;101191.50;4969568;28;20130;-74
2022/05/13 05:47:45;;;;;;;7.70;1.50;;;19.40;99.90;;;18.56;55.67;101185.22;4958090;28;20026;-75
2022/05/13 05:50:16;;;;;;;8.35;1.60;;;19.20;99.90;;;18.31;57.00;101186.97;4953666;28;20050;-75
2022/05/13 05:52:42;;;;;;;8.10;1.60;;;19.00;99.90;;;18.14;57.67;101190.88;4963408;28;20479;-75
2022/05/13 05:58:14;;;;;;;6.90;1.38;;;19.20;99.90;;;18.71;56.04;101188.56;4969530;28;20390;-75
2022/05/13 06:00:49;;;;;;;9.57;1.87;;;19.50;99.90;;;19.82;54.07;101205.13;4972099;28;20342;-75
2022/05/13 06:03:17;;;;;;;8.45;2.17;;;19.90;99.90;;;19.32;53.85;101197.34;4982372;28;20029;-75
2022/05/13 06:05:46;;;;;;;7.72;1.58;;;20.00;99.90;;;18.93;54.24;101203.88;4971978;28;20057;-75
2022/05/13 06:08:12;;;;;;;7.05;1.40;;;20.00;99.90;;;18.65;54.84;101206.72;4965908;28;20050;-75
2022/05/13 06:10:37;;;;;;;8.02;1.80;;;19.70;99.90;;;18.09;55.73;101206.31;4960848;28;20033;-75
2022/05/13 06:13:05;;;;;;;6.15;1.52;;;19.50;99.90;;;17.99;56.51;101199.91;4977945;28;20130;-75
2022/05/13 06:15:31;;;;;;;6.00;1.17;;;19.30;99.90;;;18.21;56.61;101191.28;4964042;28;20037;-76
2022/05/13 06:17:59;;;;;;;5.95;1.27;;;19.30;99.90;;;18.52;55.48;101197.91;4953630;28;20132;-75
2022/05/13 06:20:29;;;;;;;8.57;1.35;;;19.20;99.90;;;18.87;54.87;101197.16;4966734;28;20456;-75
2022/05/13 06:22:56;;;;;;;7.20;1.23;;;19.30;99.90;;;19.13;54.29;101208.56;4986125;28;21085;-75
2022/05/13 06:25:23;;;;;;;6.38;1.40;;;19.50;99.90;;;19.10;53.93;101207.97;4978180;28;20041;-75
2022/05/13 06:27:51;;;;;;;7.47;1.33;;;19.50;99.90;;;18.97;54.19;101211.53;4972529;28;20089;-75
2022/05/13 06:30:26;;;;;;;9.88;1.70;;;19.50;99.90;;;19.05;54.27;101213.66;4954989;28;20037;-75
2022/05/13 06:32:54;;;;;;;6.43;1.00;;;19.50;99.90;;;18.81;54.02;101209.16;4963732;28;20427;-75
2022/05/13 06:35:23;;;;;;;6.60;1.30;;;19.40;99.90;;;18.56;54.41;101217.22;4973787;28;20062;-75
2022/05/13 06:37:49;;;;;;;6.38;1.55;;;19.20;99.90;;;18.33;55.07;101217.03;4954397;28;20529;-75
2022/05/13 06:40:15;;;;;;;9.77;1.73;;;19.20;99.90;;;18.67;54.61;101219.09;4998523;28;20058;-75
2022/05/13 06:42:40;;;;;;;7.28;1.63;;;19.30;99.90;;;18.94;53.80;101217.09;4968107;28;20029;-75
2022/05/13 06:45:06;;;;;;;;;;;19.30;99.90;;;18.98;54.11;101223.06;4966317;28;20026;-75
2022/05/13 06:47:32;;;;;;;8.20;1.38;;;19.50;99.90;;;19.00;54.49;101226.47;4986109;28;20353;-75
2022/05/13 06:50:00;;;;;;;;;;;19.50;99.90;;;18.99;53.89;101220.28;4984024;28;20061;-75
2022/05/13 06:52:26;;;;;;;7.03;1.23;;;19.60;99.90;;;19.00;54.21;101218.44;4992780;28;20384;-75
2022/05/13 06:54:52;;;;;;;8.55;1.85;;;19.60;99.90;;;18.94;54.25;101226.91;4946143;28;20557;-75
2022/05/13 06:57:17;;;;;;;;;;;19.60;99.90;;;19.14;54.18;101228.13;4958813;28;20015;-75
2022/05/13 06:59:43;;;;;;;8.02;1.67;;;19.70;99.90;;;19.17;53.81;101222.53;4954401;28;19914;-75
2022/05/13 07:02:09;;;;;;;7.43;1.40;;;19.80;99.90;;;19.37;53.47;101224.56;4993668;28;20023;-75
2022/05/13 07:04:35;;;;;;;8.32;1.30;;;19.90;99.90;;;19.56;52.74;101217.81;4965592;28;20053;-74
2022/05/13 07:07:01;;;;;;;10.88;1.80;;;20.10;99.90;;;20.00;51.58;101213.53;4954963;28;20117;-75
2022/05/13 07:09:27;;;;;;;;;;;20.10;99.90;;;20.26;49.55;101222.19;4970689;28;20101;-75
2022/05/13 07:11:54;;;;;;;6.25;1.55;;;20.70;99.90;;;20.73;50.76;101227.34;4980503;28;19949;-76
2022/05/13 07:14:20;;;;;;;19.08;1.98;;;21.10;99.90;;;21.05;49.98;101220.19;4978637;28;20082;-76
2022/05/13 07:16:45;;;;;;;10.90;1.60;;;21.30;99.90;;;21.17;49.67;101222.84;4963180;28;20045;-76
2022/05/13 07:19:11;;;;;;;4.88;1.50;;;21.40;99.90;;;21.21;48.70;101214.44;4949879;28;20033;-75
2022/05/13 07:21:37;;;;;;;12.98;1.85;;;21.50;99.60;;;21.03;48.63;101211.44;4965838;28;20035;-77
2022/05/13 07:24:04;;;;;;;14.27;2.35;;;21.40;99.30;;;20.78;48.68;101225.19;4957853;28;20080;-76
2022/05/13 07:26:29;;;;;;;13.02;2.30;;;21.20;99.40;;;20.50;49.12;101227.38;4962019;28;20085;-77
2022/05/13 07:28:55;;;;;;;13.60;1.63;;;21.10;99.80;;;20.37;50.02;101224.00;4943911;28;20037;-77
2022/05/13 07:31:21;;;;;;;12.93;2.00;;;20.90;99.30;;;20.25;50.28;101217.78;4951452;28;20146;-77
2022/05/13 07:33:49;;;;;;;10.52;2.42;;;20.80;99.60;;;20.17;50.20;101218.41;4963712;28;20037;-77
2022/05/13 07:36:15;;;;;;;11.88;1.88;;;20.70;99.10;;;20.07;49.90;101220.09;4943233;28;20063;-76
2022/05/13 07:41:16;;;;;;;16.85;2.58;;;20.80;99.90;;;20.32;50.74;101239.53;4943731;28;20038;-76
2022/05/13 07:41:26;;;;;;;13.40;3.38;;;20.80;99.90;;;20.50;50.86;101224.69;4962873;28;20030;-77
2022/05/13 07:43:54;;;;;;;9.60;2.30;;;20.90;99.40;;;20.21;50.25;101230.53;4957414;28;20611;-77
2022/05/13 07:46:20;;;;;;;10.57;1.95;;;20.70;98.90;;;19.91;50.23;101232.97;4946690;28;20041;-77
2022/05/13 07:48:45;;;;;;;13.65;2.38;;;20.50;99.40;;;19.58;50.90;101232.75;4964258;28;20030;-77
2022/05/13 07:51:11;;;;;;;10.63;1.60;;;20.20;98.90;;;19.07;51.47;101230.41;4968375;28;20045;-76
2022/05/13 07:53:37;;;;;;;;;;;20.20;99.80;;;18.59;50.54;101233.81;4936986;28;20033;-77
2022/05/13 07:56:04;;;;;;;7.60;1.67;;;19.60;99.70;;;18.43;52.88;101235.91;4944776;28;20251;-77
2022/05/13 07:58:30;;;;;;;7.10;1.50;;;19.40;99.90;;;18.50;53.41;101231.81;4970578;28;20152;-77
2022/05/13 08:01:03;;;;;;;11.70;1.83;;;19.30;99.90;;;18.76;53.14;101229.09;4946549;28;20034;-77
2022/05/13 08:03:32;;;;;;;7.35;1.92;;;19.40;99.90;;;19.12;52.31;101236.22;4969228;28;20136;-77
2022/05/13 08:06:03;;;;;;;10.68;1.90;;;19.60;99.90;;;19.41;51.80;101227.84;4904991;28;20070;-77
2022/05/13 08:08:35;;;;;;;15.57;2.47;;;19.90;99.90;;;19.70;51.48;101219.44;4957769;28;20034;-77
2022/05/13 08:11:05;;;;;;;11.50;2.63;;;20.20;99.60;;;19.91;50.37;101230.28;4977669;28;20029;-76
2022/05/13 08:13:33;;;;;;;11.63;1.75;;;20.30;99.50;;;19.69;50.42;101231.91;4995470;28;20042;-76
2022/05/13 08:16:02;;;;;;;12.38;1.90;;;20.20;99.40;;;19.47;51.09;101225.56;4912595;28;20040;-77
2022/05/13 08:18:28;;;;;;;35.47;5.55;;;20.20;99.80;;;19.37;51.76;101221.91;4948658;28;20042;-77
2022/05/13 08:20:54;;;;;;;15.68;3.00;;;20.30;99.90;;;19.66;51.81;101222.31;4943024;28;20029;-76
2022/05/13 08:23:20;;;;;;;13.48;2.78;;;20.50;99.40;;;20.01;50.80;101213.41;4964904;28;20033;-77
2022/05/13 08:25:46;;;;;;;20.10;3.45;;;20.80;99.50;;;20.47;50.31;101219.59;4937928;28;20121;-77
2022/05/13 08:28:17;;;;;;;7.40;1.90;;;21.00;98.90;;;20.67;49.00;101226.06;4966115;28;21232;-77
2022/05/13 08:30:44;;;;;;;21.45;3.80;;;21.20;98.80;;;20.68;49.21;101236.59;4948825;28;20031;-77
2022/05/13 08:33:11;;;;;;;25.23;3.15;;;21.20;98.70;;;20.41;49.42;101230.78;4963573;28;20382;-76
2022/05/13 08:35:50;;;;;;;24.67;3.13;;;21.00;98.20;;;19.95;49.59;101223.72;4950191;28;20092;-77
2022/05/13 08:38:25;;;;;;;14.32;2.10;;;20.60;98.60;;;19.53;50.85;101210.03;4980783;28;20065;-77
2022/05/13 08:40:52;;;;;;;15.52;2.17;;;20.20;98.90;;;19.27;51.52;101210.22;4958487;28;20081;-77
2022/05/13 08:43:36;;;;;;;11.95;2.38;;;20.00;99.40;;;18.92;52.55;101207.50;4970757;28;20026;-78
2022/05/13 08:46:30;;;;;;;10.07;2.13;;;19.70;99.90;;;18.68;53.26;101210.97;4964088;28;20438;-76
2022/05/13 08:49:17;;;;;;;42.83;5.82;;;19.70;99.90;;;18.80;54.07;101198.59;4979910;28;21198;-76
2022/05/13 08:55:08;;;;;;;128.82;22.58;;;19.80;99.90;;;19.18;53.04;101197.53;4973208;28;20068;-76
2022/05/13 08:57:43;;;;;;;67.55;9.15;;;20.00;99.90;;;19.77;51.94;101205.50;4955403;28;20022;-77
2022/05/13 09:00:18;;;;;;;134.80;18.87;;;20.40;99.90;;;20.06;51.68;101200.56;4956155;28;20026;-76
2022/05/13 09:02:58;;;;;;;9.32;2.00;;;20.60;99.90;;;20.09;51.17;101196.78;4990781;28;21143;-78
2022/05/13 09:05:48;;;;;;;12.48;2.65;;;20.50;99.20;;;19.68;50.92;101200.84;4943362;28;20034;-77
2022/05/13 09:08:15;;;;;;;7.38;2.03;;;20.40;99.30;;;19.41;52.31;101199.31;4954791;28;20057;-77
2022/05/13 09:11:08;;;;;;;8.63;2.22;;;20.40;99.50;;;19.36;52.00;101193.47;4990789;28;20055;-76
2022/05/13 09:13:49;;;;;;;12.57;2.72;;;20.30;99.30;;;19.36;52.11;101189.97;4976962;28;20026;-77
2022/05/13 09:16:31;;;;;;;16.77;2.85;;;20.30;99.60;;;19.75;52.34;101196.75;4976310;28;20233;-77
2022/05/13 09:19:12;;;;;;;14.15;3.33;;;20.50;99.30;;;19.88;51.67;101192.13;4951572;28;20030;-77
2022/05/13 09:21:45;;;;;;;53.03;4.95;;;20.60;99.30;;;19.92;51.27;101192.75;4945808;28;20026;-77
2022/05/13 09:24:13;;;;;;;29.88;3.88;;;20.60;99.40;;;19.63;51.60;101195.00;4951191;28;20030;-76
2022/05/13 09:26:39;;;;;;;13.95;2.75;;;20.60;99.60;;;19.33;52.13;101184.84;4962592;28;20022;-77
2022/05/13 09:29:17;;;;;;;14.43;2.85;;;20.20;99.10;;;19.02;52.64;101185.34;4957405;28;20137;-77
2022/05/13 09:31:55;;;;;;;18.15;3.03;;;20.00;99.50;;;18.87;52.77;101178.47;4966531;28;20030;-77
2022/05/13 09:34:48;;;;;;;16.35;2.33;;;19.80;99.70;;;18.61;53.48;101175.88;4973942;28;20038;-77
2022/05/13 09:37:29;;;;;;;15.48;2.05;;;19.50;99.60;;;18.22;53.73;101176.97;4875854;23;20562;-78
2022/05/13 09:40:18;;;;;;;12.18;2.33;;;19.10;99.70;;;17.75;54.32;101178.47;4947541;28;20046;-77
2022/05/13 09:42:54;;;;;;;12.35;2.30;;;18.70;99.80;;;17.35;55.18;101171.44;4956264;28;20072;-78
2022/05/13 09:45:33;;;;;;;20.45;2.80;;;18.30;99.90;;;17.04;56.23;101171.78;4930084;28;20058;-77
2022/05/13 09:48:04;;;;;;;11.63;2.13;;;18.10;99.90;;;16.99;57.46;101172.09;4956038;28;20048;-77
2022/05/13 09:50:55;;;;;;;21.55;2.60;;;18.00;99.90;;;17.02;57.57;101161.28;4960290;28;20093;-76
2022/05/13 09:53:31;;;;;;;20.27;3.05;;;17.90;99.90;;;16.89;57.93;101163.91;4963412;28;20088;-77
2022/05/13 09:56:01;;;;;;;16.77;2.85;;;17.80;99.90;;;16.81;57.63;101155.56;4929718;28;20042;-77
2022/05/13 09:58:55;;;;;;;13.30;2.70;;;17.70;99.90;;;16.66;57.34;101167.19;4996904;28;20045;-78
2022/05/13 10:01:29;;;;;;;17.63;3.47;;;17.60;99.90;;;16.56;58.08;101164.25;4957607;28;20128;-77
2022/05/13 10:04:18;;;;;;;15.60;2.90;;;17.50;99.90;;;16.53;58.99;101162.66;4959837;28;20039;-76
2022/05/13 10:06:50;;;;;;;15.88;2.95;;;17.40;99.90;;;16.42;58.03;101159.00;4959605;28;20442;-77
2022/05/13 10:15:51;;;;;;;18.25;3.47;;;17.40;99.90;;;16.54;58.85;101151.06;4947525;28;20060;-77
2022/05/13 10:18:34;;;;;;;15.73;3.10;;;17.40;99.90;;;16.54;58.25;101148.41;4954567;28;20034;-77
2022/05/13 10:21:18;;;;;;;21.00;3.22;;;17.40;99.90;;;16.59;58.09;101156.09;4961599;28;20113;-77
2022/05/13 10:24:31;;;;;;;13.73;3.00;;;17.50;99.90;;;16.69;57.42;101148.34;4971790;28;20041;-75
2022/05/13 10:27:03;;;;;;;12.90;3.15;;;17.60;99.90;;;16.85;57.76;101149.09;4993975;28;20029;-76
2022/05/13 10:29:48;;;;;;;13.23;3.08;;;17.80;99.90;;;17.07;57.99;101156.47;4918582;28;20034;-75
2022/05/13 10:32:38;;;;;;;11.48;2.95;;;18.00;99.90;;;17.38;58.10;101149.91;4930804;28;20022;-76
2022/05/13 10:35:22;;;;;;;11.35;2.53;;;18.30;99.90;;;17.62;56.29;101141.19;4929995;23;20037;-76
2022/05/13 10:38:02;;;;;;;11.18;2.95;;;18.60;99.90;;;17.83;55.91;101139.72;4990179;28;20037;-76
2022/05/13 10:40:44;;;;;;;11.60;2.28;;;18.80;99.90;;;17.98;55.09;101136.94;4953283;28;20033;-76
2022/05/13 10:43:16;;;;;;;13.27;2.90;;;18.90;99.90;;;18.07;54.91;101149.59;4978720;28;20026;-75
2022/05/13 10:45:44;;;;;;;12.10;2.60;;;18.90;99.80;;;17.95;53.72;101148.69;4975977;28;20019;-76
2022/05/13 10:48:30;;;;;;;11.57;2.53;;;18.90;99.60;;;17.83;53.31;101150.38;4964628;28;20462;-76
2022/05/13 10:51:17;;;;;;;12.93;2.30;;;18.80;98.70;;;17.74;52.23;101151.00;4963186;28;20050;-75